sensor_id;sensor_type;location;lat;lon;timestamp;temperature;humidity
14993;DHT22;7592;51.088;13.732;2022-12-20T00:04:17;2.00;99.90
14993;DHT22;7592;51.088;13.732;2022-12-20T00:09:10;2.00;99.90
14993;DHT22;7592;51.088;13.732;2022-12-20T00:14:03;2.00;99.90
14993;DHT22;7592;51.088;13.732;2022-12-20T00:19:00;1.90;99.90
14993;DHT22;7592;51.088;13.732;2022-12-20T00:23:53;1.90;99.90
14993;DHT22;7592;51.088;13.732;2022-12-20T00:28:45;1.90;99.90
14993;DHT22;7592;51.088;13.732;2022-12-20T00:33:38;1.90;99.90
14993;DHT22;7592;51.088;13.732;2022-12-20T00:38:33;1.90;99.90
14993;DHT22;7592;51.088;13.732;2022-12-20T00:43:25;1.90;99.90
14993;DHT22;7592;51.088;13.732;2022-12-20T00:48:17;1.90;99.90
14993;DHT22;7592;51.088;13.732;2022-12-20T00:53:09;1.90;99.90
14993;DHT22;7592;51.088;13.732;2022-12-20T00:58:01;2.00;99.90
14993;DHT22;7592;51.088;13.732;2022-12-20T01:02:53;1.90;99.90
14993;DHT22;7592;51.088;13.732;2022-12-20T01:07:45;2.00;99.90
14993;DHT22;7592;51.088;13.732;2022-12-20T01:12:37;2.00;99.90
14993;DHT22;7592;51.088;13.732;2022-12-20T01:17:29;2.10;99.90
14993;DHT22;7592;51.088;13.732;2022-12-20T01:22:21;2.30;99.90
14993;DHT22;7592;51.088;13.732;2022-12-20T01:27:13;2.50;99.90
14993;DHT22;7592;51.088;13.732;2022-12-20T01:32:05;2.60;99.90
14993;DHT22;7592;51.088;13.732;2022-12-20T01:36:59;2.60;99.90
14993;DHT22;7592;51.088;13.732;2022-12-20T01:41:51;2.70;99.90
14993;DHT22;7592;51.088;13.732;2022-12-20T01:46:44;2.70;99.90
14993;DHT22;7592;51.088;13.732;2022-12-20T01:51:42;2.70;99.90
14993;DHT22;7592;51.088;13.732;2022-12-20T01:56:37;2.70;99.90
14993;DHT22;7592;51.088;13.732;2022-12-20T02:01:31;2.60;99.90
14993;DHT22;7592;51.088;13.732;2022-12-20T02:13:01;2.70;99.90
14993;DHT22;7592;51.088;13.732;2022-12-20T02:28:32;2.80;99.90
14993;DHT22;7592;51.088;13.732;2022-12-20T02:33:30;2.80;99.90
14993;DHT22;7592;51.088;13.732;2022-12-20T02:43:17;2.80;99.90
14993;DHT22;7592;51.088;13.732;2022-12-20T02:48:29;2.70;99.90
14993;DHT22;7592;51.088;13.732;2022-12-20T02:53:23;2.70;99.90
14993;DHT22;7592;51.088;13.732;2022-12-20T03:03:32;2.60;99.90
14993;DHT22;7592;51.088;13.732;2022-12-20T03:08:25;2.60;99.90
14993;DHT22;7592;51.088;13.732;2022-12-20T03:13:17;2.50;99.90
14993;DHT22;7592;51.088;13.732;2022-12-20T03:18:19;2.40;99.90
14993;DHT22;7592;51.088;13.732;2022-12-20T03:23:11;2.40;99.90
14993;DHT22;7592;51.088;13.732;2022-12-20T03:28:04;2.50;99.90
14993;DHT22;7592;51.088;13.732;2022-12-20T03:32:56;2.60;99.90
14993;DHT22;7592;51.088;13.732;2022-12-20T03:37:48;2.70;99.90
14993;DHT22;7592;51.088;13.732;2022-12-20T03:42:41;2.70;99.90
14993;DHT22;7592;51.088;13.732;2022-12-20T03:47:34;2.80;99.90
14993;DHT22;7592;51.088;13.732;2022-12-20T03:52:27;2.80;99.90
14993;DHT22;7592;51.088;13.732;2022-12-20T03:57:19;2.80;99.90
14993;DHT22;7592;51.088;13.732;2022-12-20T04:02:14;2.80;99.90
14993;DHT22;7592;51.088;13.732;2022-12-20T04:07:07;2.90;99.90
14993;DHT22;7592;51.088;13.732;2022-12-20T04:12:02;2.90;99.90
14993;DHT22;7592;51.088;13.732;2022-12-20T04:16:55;2.90;99.90
14993;DHT22;7592;51.088;13.732;2022-12-20T04:21:48;2.90;99.90
14993;DHT22;7592;51.088;13.732;2022-12-20T04:26:42;3.00;99.90
14993;DHT22;7592;51.088;13.732;2022-12-20T04:31:36;3.00;99.90
14993;DHT22;7592;51.088;13.732;2022-12-20T04:36:29;3.00;99.90
14993;DHT22;7592;51.088;13.732;2022-12-20T04:41:23;3.00;99.90
14993;DHT22;7592;51.088;13.732;2022-12-20T04:46:23;3.00;99.90
14993;DHT22;7592;51.088;13.732;2022-12-20T04:51:18;3.00;99.90
14993;DHT22;7592;51.088;13.732;2022-12-20T04:56:10;3.00;99.90
14993;DHT22;7592;51.088;13.732;2022-12-20T05:01:02;3.00;99.90
14993;DHT22;7592;51.088;13.732;2022-12-20T05:06:06;2.90;99.90
14993;DHT22;7592;51.088;13.732;2022-12-20T05:10:58;2.90;99.90
14993;DHT22;7592;51.088;13.732;2022-12-20T05:15:54;2.90;99.90
14993;DHT22;7592;51.088;13.732;2022-12-20T05:20:55;2.80;99.90
14993;DHT22;7592;51.088;13.732;2022-12-20T05:26:09;2.80;99.90
14993;DHT22;7592;51.088;13.732;2022-12-20T05:31:12;2.80;99.90
14993;DHT22;7592;51.088;13.732;2022-12-20T05:36:04;2.80;99.90
14993;DHT22;7592;51.088;13.732;2022-12-20T05:40:56;2.80;99.90
14993;DHT22;7592;51.088;13.732;2022-12-20T05:45:51;2.80;99.90
14993;DHT22;7592;51.088;13.732;2022-12-20T05:50:53;2.90;99.90
14993;DHT22;7592;51.088;13.732;2022-12-20T05:55:54;2.90;99.90
14993;DHT22;7592;51.088;13.732;2022-12-20T06:00:52;3.00;99.90
14993;DHT22;7592;51.088;13.732;2022-12-20T06:05:45;3.10;99.90
14993;DHT22;7592;51.088;13.732;2022-12-20T06:10:43;3.20;99.90
14993;DHT22;7592;51.088;13.732;2022-12-20T06:15:38;3.20;99.90
14993;DHT22;7592;51.088;13.732;2022-12-20T06:20:31;3.20;99.90
14993;DHT22;7592;51.088;13.732;2022-12-20T06:25:27;3.30;99.90
14993;DHT22;7592;51.088;13.732;2022-12-20T06:30:19;3.30;99.90
14993;DHT22;7592;51.088;13.732;2022-12-20T06:35:24;3.20;99.90
14993;DHT22;7592;51.088;13.732;2022-12-20T06:40:19;3.20;99.90
14993;DHT22;7592;51.088;13.732;2022-12-20T06:45:12;3.10;99.90
14993;DHT22;7592;51.088;13.732;2022-12-20T06:50:05;3.10;99.90
14993;DHT22;7592;51.088;13.732;2022-12-20T06:54:59;3.00;99.90
14993;DHT22;7592;51.088;13.732;2022-12-20T06:59:55;3.00;99.90
14993;DHT22;7592;51.088;13.732;2022-12-20T07:04:47;2.90;99.90
14993;DHT22;7592;51.088;13.732;2022-12-20T07:09:39;2.90;99.90
14993;DHT22;7592;51.088;13.732;2022-12-20T07:14:34;2.90;99.90
14993;DHT22;7592;51.088;13.732;2022-12-20T07:19:27;2.90;99.90
14993;DHT22;7592;51.088;13.732;2022-12-20T07:24:20;3.00;99.90
14993;DHT22;7592;51.088;13.732;2022-12-20T07:29:12;3.00;99.90
14993;DHT22;7592;51.088;13.732;2022-12-20T07:34:06;3.10;99.90
14993;DHT22;7592;51.088;13.732;2022-12-20T07:38:59;3.20;99.90
14993;DHT22;7592;51.088;13.732;2022-12-20T07:43:51;3.20;99.90
14993;DHT22;7592;51.088;13.732;2022-12-20T07:48:43;3.30;99.90
14993;DHT22;7592;51.088;13.732;2022-12-20T07:53:39;3.40;99.90
14993;DHT22;7592;51.088;13.732;2022-12-20T07:58:34;3.40;99.90
14993;DHT22;7592;51.088;13.732;2022-12-20T08:03:32;3.30;99.90
14993;DHT22;7592;51.088;13.732;2022-12-20T08:08:27;3.40;99.90
14993;DHT22;7592;51.088;13.732;2022-12-20T08:13:20;3.30;99.90
14993;DHT22;7592;51.088;13.732;2022-12-20T08:18:12;3.20;99.90
14993;DHT22;7592;51.088;13.732;2022-12-20T08:23:04;3.40;99.90
14993;DHT22;7592;51.088;13.732;2022-12-20T08:27:56;3.40;99.90
14993;DHT22;7592;51.088;13.732;2022-12-20T08:32:52;3.40;99.90
14993;DHT22;7592;51.088;13.732;2022-12-20T08:37:44;3.40;99.90
14993;DHT22;7592;51.088;13.732;2022-12-20T08:42:36;3.30;99.90
14993;DHT22;7592;51.088;13.732;2022-12-20T08:47:29;3.30;99.90
14993;DHT22;7592;51.088;13.732;2022-12-20T08:52:21;3.50;99.90
14993;DHT22;7592;51.088;13.732;2022-12-20T08:57:15;3.80;99.90
14993;DHT22;7592;51.088;13.732;2022-12-20T09:02:08;4.10;99.90
14993;DHT22;7592;51.088;13.732;2022-12-20T09:07:00;3.80;99.90
14993;DHT22;7592;51.088;13.732;2022-12-20T09:11:52;4.00;99.90
14993;DHT22;7592;51.088;13.732;2022-12-20T09:16:44;4.20;99.90
14993;DHT22;7592;51.088;13.732;2022-12-20T09:21:36;4.30;99.90
14993;DHT22;7592;51.088;13.732;2022-12-20T09:26:28;4.20;99.90
14993;DHT22;7592;51.088;13.732;2022-12-20T09:31:23;4.10;99.90
14993;DHT22;7592;51.088;13.732;2022-12-20T09:36:18;4.30;99.90
14993;DHT22;7592;51.088;13.732;2022-12-20T09:41:33;4.50;99.90
14993;DHT22;7592;51.088;13.732;2022-12-20T09:46:26;4.40;99.90
14993;DHT22;7592;51.088;13.732;2022-12-20T09:52:20;4.50;99.90
14993;DHT22;7592;51.088;13.732;2022-12-20T09:57:28;4.70;99.90
14993;DHT22;7592;51.088;13.732;2022-12-20T10:02:21;4.50;99.90
14993;DHT22;7592;51.088;13.732;2022-12-20T10:07:41;4.60;99.90
14993;DHT22;7592;51.088;13.732;2022-12-20T10:28:35;4.00;99.90
14993;DHT22;7592;51.088;13.732;2022-12-20T10:33:29;3.90;99.90
14993;DHT22;7592;51.088;13.732;2022-12-20T10:38:22;3.70;99.90
14993;DHT22;7592;51.088;13.732;2022-12-20T10:43:18;3.70;99.90
14993;DHT22;7592;51.088;13.732;2022-12-20T10:48:30;3.70;99.90
14993;DHT22;7592;51.088;13.732;2022-12-20T10:53:23;3.70;99.90
14993;DHT22;7592;51.088;13.732;2022-12-20T10:58:18;3.60;99.90
14993;DHT22;7592;51.088;13.732;2022-12-20T11:03:21;3.60;99.90
14993;DHT22;7592;51.088;13.732;2022-12-20T11:08:16;3.50;99.90
14993;DHT22;7592;51.088;13.732;2022-12-20T11:13:29;3.50;99.90
14993;DHT22;7592;51.088;13.732;2022-12-20T11:23:39;3.60;99.90
14993;DHT22;7592;51.088;13.732;2022-12-20T11:39:03;7.10;99.90
14993;DHT22;7592;51.088;13.732;2022-12-20T11:54:32;3.90;99.90
14993;DHT22;7592;51.088;13.732;2022-12-20T12:04:38;3.80;99.90
14993;DHT22;7592;51.088;13.732;2022-12-20T12:09:37;3.90;99.90
14993;DHT22;7592;51.088;13.732;2022-12-20T12:14:34;3.80;99.90
14993;DHT22;7592;51.088;13.732;2022-12-20T12:19:29;3.80;99.90
14993;DHT22;7592;51.088;13.732;2022-12-20T12:24:33;3.70;99.90
14993;DHT22;7592;51.088;13.732;2022-12-20T12:29:28;3.60;99.90
14993;DHT22;7592;51.088;13.732;2022-12-20T12:45:00;3.40;99.90
14993;DHT22;7592;51.088;13.732;2022-12-20T12:49:55;3.30;99.90
14993;DHT22;7592;51.088;13.732;2022-12-20T12:54:47;3.30;99.90
14993;DHT22;7592;51.088;13.732;2022-12-20T12:59:42;3.30;99.90
14993;DHT22;7592;51.088;13.732;2022-12-20T13:20:20;3.40;99.90
14993;DHT22;7592;51.088;13.732;2022-12-20T13:25:34;3.40;99.90
14993;DHT22;7592;51.088;13.732;2022-12-20T13:30:26;3.30;99.90
14993;DHT22;7592;51.088;13.732;2022-12-20T13:40:48;3.20;99.90
14993;DHT22;7592;51.088;13.732;2022-12-20T13:45:44;3.20;99.90
14993;DHT22;7592;51.088;13.732;2022-12-20T13:50:39;3.20;99.90
14993;DHT22;7592;51.088;13.732;2022-12-20T13:55:39;3.10;99.90
14993;DHT22;7592;51.088;13.732;2022-12-20T14:00:33;3.10;99.90
14993;DHT22;7592;51.088;13.732;2022-12-20T14:05:31;3.10;99.90
14993;DHT22;7592;51.088;13.732;2022-12-20T14:10:25;3.10;99.90
14993;DHT22;7592;51.088;13.732;2022-12-20T14:20:16;3.20;99.90
14993;DHT22;7592;51.088;13.732;2022-12-20T14:25:12;3.20;99.90
14993;DHT22;7592;51.088;13.732;2022-12-20T14:30:05;3.20;99.90
14993;DHT22;7592;51.088;13.732;2022-12-20T14:34:59;3.40;99.90
14993;DHT22;7592;51.088;13.732;2022-12-20T14:39:55;3.50;99.90
14993;DHT22;7592;51.088;13.732;2022-12-20T14:44:48;3.50;99.90
14993;DHT22;7592;51.088;13.732;2022-12-20T14:49:56;3.60;99.90
14993;DHT22;7592;51.088;13.732;2022-12-20T15:10:19;3.70;99.90
14993;DHT22;7592;51.088;13.732;2022-12-20T15:15:15;3.70;99.90
14993;DHT22;7592;51.088;13.732;2022-12-20T15:20:20;3.80;99.90
14993;DHT22;7592;51.088;13.732;2022-12-20T15:25:16;3.80;99.90
14993;DHT22;7592;51.088;13.732;2022-12-20T15:30:11;3.80;99.90
14993;DHT22;7592;51.088;13.732;2022-12-20T15:35:05;3.80;99.90
14993;DHT22;7592;51.088;13.732;2022-12-20T15:39:57;3.80;99.90
14993;DHT22;7592;51.088;13.732;2022-12-20T15:44:50;3.80;99.90
14993;DHT22;7592;51.088;13.732;2022-12-20T15:49:42;3.80;99.90
14993;DHT22;7592;51.088;13.732;2022-12-20T15:54:41;3.80;99.90
14993;DHT22;7592;51.088;13.732;2022-12-20T15:59:33;3.80;99.90
14993;DHT22;7592;51.088;13.732;2022-12-20T16:04:45;3.80;99.90
14993;DHT22;7592;51.088;13.732;2022-12-20T16:09:37;3.80;99.90
14993;DHT22;7592;51.088;13.732;2022-12-20T16:14:29;3.80;99.90
14993;DHT22;7592;51.088;13.732;2022-12-20T16:19:21;3.80;99.90
14993;DHT22;7592;51.088;13.732;2022-12-20T16:24:16;3.80;99.90
14993;DHT22;7592;51.088;13.732;2022-12-20T16:29:08;3.80;99.90
14993;DHT22;7592;51.088;13.732;2022-12-20T16:34:02;3.80;99.90
14993;DHT22;7592;51.088;13.732;2022-12-20T16:38:55;3.80;99.90
14993;DHT22;7592;51.088;13.732;2022-12-20T16:43:47;3.80;99.90
14993;DHT22;7592;51.088;13.732;2022-12-20T16:48:40;3.80;99.90
14993;DHT22;7592;51.088;13.732;2022-12-20T16:53:32;3.70;99.90
14993;DHT22;7592;51.088;13.732;2022-12-20T16:58:44;3.70;99.90
14993;DHT22;7592;51.088;13.732;2022-12-20T17:03:57;3.70;99.90
14993;DHT22;7592;51.088;13.732;2022-12-20T17:08:49;3.70;99.90
14993;DHT22;7592;51.088;13.732;2022-12-20T17:13:59;3.60;99.90
14993;DHT22;7592;51.088;13.732;2022-12-20T17:18:53;3.60;99.90
14993;DHT22;7592;51.088;13.732;2022-12-20T17:23:45;3.50;99.90
14993;DHT22;7592;51.088;13.732;2022-12-20T17:28:38;3.50;99.90
14993;DHT22;7592;51.088;13.732;2022-12-20T17:33:30;3.50;99.90
14993;DHT22;7592;51.088;13.732;2022-12-20T17:38:22;3.50;99.90
14993;DHT22;7592;51.088;13.732;2022-12-20T17:43:14;3.60;99.90
14993;DHT22;7592;51.088;13.732;2022-12-20T17:48:06;3.50;99.90
14993;DHT22;7592;51.088;13.732;2022-12-20T17:52:58;3.50;99.90
14993;DHT22;7592;51.088;13.732;2022-12-20T17:57:50;3.30;99.90
14993;DHT22;7592;51.088;13.732;2022-12-20T18:02:43;3.30;99.90
14993;DHT22;7592;51.088;13.732;2022-12-20T18:07:35;3.40;99.90
14993;DHT22;7592;51.088;13.732;2022-12-20T18:12:27;3.50;99.90
14993;DHT22;7592;51.088;13.732;2022-12-20T18:17:27;3.50;99.90
14993;DHT22;7592;51.088;13.732;2022-12-20T18:22:20;3.60;99.90
14993;DHT22;7592;51.088;13.732;2022-12-20T18:27:12;3.60;99.90
14993;DHT22;7592;51.088;13.732;2022-12-20T18:32:05;3.60;99.90
14993;DHT22;7592;51.088;13.732;2022-12-20T18:36:57;3.60;99.90
14993;DHT22;7592;51.088;13.732;2022-12-20T18:41:50;3.60;99.90
14993;DHT22;7592;51.088;13.732;2022-12-20T18:46:42;3.60;99.90
14993;DHT22;7592;51.088;13.732;2022-12-20T18:51:35;3.60;99.90
14993;DHT22;7592;51.088;13.732;2022-12-20T18:56:32;3.60;99.90
14993;DHT22;7592;51.088;13.732;2022-12-20T19:01:27;3.60;99.90
14993;DHT22;7592;51.088;13.732;2022-12-20T19:06:21;3.60;99.90
14993;DHT22;7592;51.088;13.732;2022-12-20T19:11:18;3.70;99.90
14993;DHT22;7592;51.088;13.732;2022-12-20T19:16:19;3.80;99.90
14993;DHT22;7592;51.088;13.732;2022-12-20T19:21:22;3.80;99.90
14993;DHT22;7592;51.088;13.732;2022-12-20T19:26:15;3.80;99.90
14993;DHT22;7592;51.088;13.732;2022-12-20T19:31:15;3.80;99.90
14993;DHT22;7592;51.088;13.732;2022-12-20T19:36:15;3.80;99.90
14993;DHT22;7592;51.088;13.732;2022-12-20T19:41:07;3.80;99.90
14993;DHT22;7592;51.088;13.732;2022-12-20T19:45:59;3.80;99.90
14993;DHT22;7592;51.088;13.732;2022-12-20T19:51:00;3.80;99.90
14993;DHT22;7592;51.088;13.732;2022-12-20T19:55:52;3.70;99.90
14993;DHT22;7592;51.088;13.732;2022-12-20T20:00:48;3.70;99.90
14993;DHT22;7592;51.088;13.732;2022-12-20T20:05:40;3.70;99.90
14993;DHT22;7592;51.088;13.732;2022-12-20T20:10:32;3.70;99.90
14993;DHT22;7592;51.088;13.732;2022-12-20T20:15:25;3.80;99.90
14993;DHT22;7592;51.088;13.732;2022-12-20T20:20:17;3.80;99.90
14993;DHT22;7592;51.088;13.732;2022-12-20T20:25:09;3.80;99.90
14993;DHT22;7592;51.088;13.732;2022-12-20T20:30:04;3.80;99.90
14993;DHT22;7592;51.088;13.732;2022-12-20T20:34:59;3.90;99.90
14993;DHT22;7592;51.088;13.732;2022-12-20T20:39:52;3.80;99.90
14993;DHT22;7592;51.088;13.732;2022-12-20T20:44:44;3.80;99.90
14993;DHT22;7592;51.088;13.732;2022-12-20T20:49:36;3.90;99.90
14993;DHT22;7592;51.088;13.732;2022-12-20T20:54:28;3.80;99.90
14993;DHT22;7592;51.088;13.732;2022-12-20T20:59:20;3.70;99.90
14993;DHT22;7592;51.088;13.732;2022-12-20T21:04:13;3.70;99.90
14993;DHT22;7592;51.088;13.732;2022-12-20T21:09:05;3.60;99.90
14993;DHT22;7592;51.088;13.732;2022-12-20T21:13:58;3.60;99.90
14993;DHT22;7592;51.088;13.732;2022-12-20T21:18:51;3.50;99.90
14993;DHT22;7592;51.088;13.732;2022-12-20T21:23:44;3.60;99.90
14993;DHT22;7592;51.088;13.732;2022-12-20T21:28:40;3.60;99.90
14993;DHT22;7592;51.088;13.732;2022-12-20T21:33:32;3.60;99.90
14993;DHT22;7592;51.088;13.732;2022-12-20T21:38:24;3.50;99.90
14993;DHT22;7592;51.088;13.732;2022-12-20T21:43:16;3.50;99.90
14993;DHT22;7592;51.088;13.732;2022-12-20T21:48:08;3.50;99.90
14993;DHT22;7592;51.088;13.732;2022-12-20T21:53:00;3.30;99.90
14993;DHT22;7592;51.088;13.732;2022-12-20T21:57:52;3.30;99.90
14993;DHT22;7592;51.088;13.732;2022-12-20T22:02:44;3.40;99.90
14993;DHT22;7592;51.088;13.732;2022-12-20T22:07:37;3.40;99.90
14993;DHT22;7592;51.088;13.732;2022-12-20T22:12:29;3.40;99.90
14993;DHT22;7592;51.088;13.732;2022-12-20T22:17:21;3.40;99.90
14993;DHT22;7592;51.088;13.732;2022-12-20T22:22:13;3.40;99.90
14993;DHT22;7592;51.088;13.732;2022-12-20T22:27:07;3.30;99.90
14993;DHT22;7592;51.088;13.732;2022-12-20T22:32:02;3.10;99.90
14993;DHT22;7592;51.088;13.732;2022-12-20T22:36:54;3.10;99.90
14993;DHT22;7592;51.088;13.732;2022-12-20T22:41:46;3.20;99.90
14993;DHT22;7592;51.088;13.732;2022-12-20T22:46:38;3.20;99.90
14993;DHT22;7592;51.088;13.732;2022-12-20T22:51:30;3.30;99.90
14993;DHT22;7592;51.088;13.732;2022-12-20T22:56:25;3.40;99.90
14993;DHT22;7592;51.088;13.732;2022-12-20T23:01:18;3.40;99.90
14993;DHT22;7592;51.088;13.732;2022-12-20T23:06:13;3.20;99.90
14993;DHT22;7592;51.088;13.732;2022-12-20T23:11:13;3.20;99.90
14993;DHT22;7592;51.088;13.732;2022-12-20T23:16:24;3.10;99.90
14993;DHT22;7592;51.088;13.732;2022-12-20T23:21:16;3.00;99.90
14993;DHT22;7592;51.088;13.732;2022-12-20T23:26:27;3.00;99.90
14993;DHT22;7592;51.088;13.732;2022-12-20T23:31:19;3.00;99.90
14993;DHT22;7592;51.088;13.732;2022-12-20T23:36:11;3.00;99.90
14993;DHT22;7592;51.088;13.732;2022-12-20T23:41:11;3.10;99.90
14993;DHT22;7592;51.088;13.732;2022-12-20T23:46:11;3.10;99.90
14993;DHT22;7592;51.088;13.732;2022-12-20T23:51:04;3.10;99.90
14993;DHT22;7592;51.088;13.732;2022-12-20T23:56:22;3.10;99.90
